EXS39T EGCC-EGPF
Flight info
| Callsign | EXS39T |
|---|---|
| Flight time | N/A |
| Altitude | 24000 |
| Route | POL1Y POL N601 RIBEL ASLIB ASLIB1G |
| Aircraft | B738/M-SDE2E3FGHIRWXY/LB1 |
Departure
| Time | 2026-05-07 11:51 |
|---|---|
| Airport | Manchester Airport (EGCC) |
Arrival
| Time | N/A |
|---|---|
| Airport | Glasgow Airport (EGPF) |
| Time | Latitude | Longitude | Altitude | Speed | Heading |
|---|---|---|---|---|---|
| 2026-05-07 11:26 | 53.35895 | -2.27411 | 243 ft | 0 kts | 275° |
| 2026-05-07 11:36 | 53.35894 | -2.27387 | 267 ft | 2 kts | 266° |
| 2026-05-07 11:36 | 53.35897 | -2.27360 | 269 ft | 2 kts | 251° |
| 2026-05-07 11:37 | 53.35904 | -2.27336 | 242 ft | 2 kts | 223° |
| 2026-05-07 11:37 | 53.35918 | -2.27322 | 241 ft | 2 kts | 192° |
| 2026-05-07 11:37 | 53.35931 | -2.27319 | 241 ft | 1 kts | 182° |
| 2026-05-07 11:37 | 53.35933 | -2.27319 | 241 ft | 0 kts | 181° |
| 2026-05-07 11:45 | 53.35929 | -2.27319 | 241 ft | 2 kts | 181° |
| 2026-05-07 11:45 | 53.35881 | -2.27321 | 241 ft | 12 kts | 181° |
| 2026-05-07 11:46 | 53.35786 | -2.27298 | 241 ft | 14 kts | 153° |
| 2026-05-07 11:46 | 53.35703 | -2.27191 | 239 ft | 13 kts | 142° |
| 2026-05-07 11:46 | 53.35699 | -2.27186 | 239 ft | 0 kts | 142° |
| 2026-05-07 11:48 | 53.35678 | -2.27158 | 239 ft | 11 kts | 142° |
| 2026-05-07 11:48 | 53.35604 | -2.27061 | 239 ft | 14 kts | 141° |
| 2026-05-07 11:48 | 53.35525 | -2.26954 | 239 ft | 14 kts | 141° |
| 2026-05-07 11:48 | 53.35442 | -2.26901 | 242 ft | 13 kts | 203° |
| 2026-05-07 11:49 | 53.35382 | -2.27013 | 245 ft | 13 kts | 232° |
| 2026-05-07 11:49 | 53.35327 | -2.27128 | 248 ft | 12 kts | 230° |
| 2026-05-07 11:49 | 53.35261 | -2.27213 | 254 ft | 12 kts | 195° |
| 2026-05-07 11:49 | 53.35182 | -2.27239 | 263 ft | 8 kts | 191° |
| 2026-05-07 11:50 | 53.35158 | -2.27247 | 266 ft | 1 kts | 191° |
| 2026-05-07 11:50 | 53.35148 | -2.27251 | 267 ft | 3 kts | 191° |
| 2026-05-07 11:50 | 53.35078 | -2.27274 | 274 ft | 17 kts | 191° |
| 2026-05-07 11:50 | 53.34987 | -2.27368 | 268 ft | 17 kts | 233° |
| 2026-05-07 11:51 | 53.34847 | -2.27658 | 263 ft | 63 kts | 230° |
| 2026-05-07 11:51 | 53.34408 | -2.28564 | 253 ft | 134 kts | 231° |
| 2026-05-07 11:51 | 53.33717 | -2.29950 | 541 ft | 165 kts | 229° |
| 2026-05-07 11:51 | 53.32990 | -2.31447 | 1408 ft | 168 kts | 229° |
| 2026-05-07 11:52 | 53.32275 | -2.32995 | 2253 ft | 171 kts | 229° |
| 2026-05-07 11:52 | 53.31666 | -2.34944 | 2559 ft | 208 kts | 252° |
| 2026-05-07 11:52 | 53.31620 | -2.37467 | 3009 ft | 227 kts | 279° |
| 2026-05-07 11:52 | 53.32367 | -2.39914 | 3425 ft | 255 kts | 309° |
| 2026-05-07 11:53 | 53.33955 | -2.41492 | 3905 ft | 277 kts | 344° |
| 2026-05-07 11:53 | 53.35818 | -2.41905 | 5009 ft | 269 kts | 350° |
| 2026-05-07 11:53 | 53.37627 | -2.42516 | 5961 ft | 259 kts | 343° |
| 2026-05-07 11:53 | 53.39345 | -2.43265 | 6996 ft | 250 kts | 343° |
| 2026-05-07 11:54 | 53.41026 | -2.44086 | 7622 ft | 264 kts | 340° |
| 2026-05-07 11:54 | 53.42848 | -2.45134 | 8028 ft | 284 kts | 339° |
| 2026-05-07 11:54 | 53.44746 | -2.46220 | 8819 ft | 291 kts | 342° |
| 2026-05-07 11:54 | 53.46786 | -2.46391 | 9576 ft | 302 kts | 14° |
| 2026-05-07 11:55 | 53.48652 | -2.44768 | 10444 ft | 304 kts | 39° |
| 2026-05-07 11:55 | 53.50306 | -2.42533 | 11307 ft | 308 kts | 40° |
| 2026-05-07 11:55 | 53.52025 | -2.40187 | 11643 ft | 332 kts | 39° |
| 2026-05-07 11:55 | 53.53897 | -2.37660 | 11854 ft | 357 kts | 39° |
| 2026-05-07 11:56 | 53.55901 | -2.34978 | 12132 ft | 378 kts | 39° |
| 2026-05-07 11:56 | 53.57987 | -2.32209 | 12807 ft | 385 kts | 39° |
| 2026-05-07 11:56 | 53.60101 | -2.29403 | 13640 ft | 388 kts | 38° |
| 2026-05-07 11:56 | 53.62206 | -2.26604 | 14403 ft | 392 kts | 38° |
| 2026-05-07 11:57 | 53.64355 | -2.23740 | 15180 ft | 396 kts | 38° |
| 2026-05-07 11:57 | 53.66531 | -2.20837 | 15925 ft | 401 kts | 38° |
| 2026-05-07 11:57 | 53.68722 | -2.17910 | 16758 ft | 403 kts | 38° |
| 2026-05-07 11:57 | 53.70944 | -2.14969 | 17471 ft | 409 kts | 36° |
| 2026-05-07 11:58 | 53.73496 | -2.12849 | 18180 ft | 413 kts | 13° |
| 2026-05-07 11:58 | 53.76347 | -2.12353 | 18789 ft | 413 kts | 356° |
| 2026-05-07 11:58 | 53.79131 | -2.13313 | 18902 ft | 404 kts | 337° |
| 2026-05-07 11:58 | 53.81714 | -2.15238 | 19040 ft | 409 kts | 334° |
| 2026-05-07 11:59 | 53.84349 | -2.17217 | 19044 ft | 418 kts | 334° |
| 2026-05-07 11:59 | 53.87013 | -2.19197 | 19038 ft | 415 kts | 336° |
| 2026-05-07 11:59 | 53.89807 | -2.20318 | 19038 ft | 412 kts | 356° |
| 2026-05-07 11:59 | 53.92648 | -2.19862 | 19062 ft | 415 kts | 14° |
| 2026-05-07 12:00 | 53.95282 | -2.17917 | 19056 ft | 422 kts | 33° |
| 2026-05-07 12:00 | 53.97496 | -2.14692 | 19062 ft | 420 kts | 47° |
| 2026-05-07 12:00 | 53.99421 | -2.10944 | 19062 ft | 421 kts | 51° |
| 2026-05-07 12:00 | 54.01274 | -2.07110 | 19043 ft | 418 kts | 51° |
| 2026-05-07 12:01 | 54.03084 | -2.03295 | 18985 ft | 407 kts | 52° |
| 2026-05-07 12:01 | 54.04826 | -1.99600 | 18850 ft | 393 kts | 52° |
| 2026-05-07 12:01 | 54.06554 | -1.96106 | 18731 ft | 378 kts | 44° |
| 2026-05-07 12:01 | 54.08679 | -1.93653 | 18619 ft | 365 kts | 22° |
| 2026-05-07 12:02 | 54.11085 | -1.92679 | 18490 ft | 351 kts | 1° |
| 2026-05-07 12:02 | 54.13469 | -1.93216 | 18105 ft | 343 kts | 339° |
| 2026-05-07 12:02 | 54.15511 | -1.95183 | 17675 ft | 336 kts | 316° |
| 2026-05-07 12:02 | 54.16931 | -1.98277 | 17240 ft | 329 kts | 293° |
| 2026-05-07 12:03 | 54.17503 | -2.01927 | 16958 ft | 318 kts | 270° |